createdAt,value
2019-03-17T00:02:06.953Z,69.85
2019-03-17T00:04:36.495Z,70.12
2019-03-17T00:07:06.041Z,70.43
2019-03-17T00:09:35.563Z,70.29
2019-03-17T00:12:05.120Z,70.28
2019-03-17T00:14:34.805Z,71.23
2019-03-17T00:17:04.344Z,71.60
2019-03-17T00:19:33.844Z,71.49
2019-03-17T00:22:03.396Z,71.25
2019-03-17T00:24:32.919Z,71.68
2019-03-17T00:27:02.453Z,71.09
2019-03-17T00:29:32.055Z,70.80
2019-03-17T00:32:01.574Z,71.18
2019-03-17T00:34:43.176Z,71.34
2019-03-17T00:37:02.358Z,71.75
2019-03-17T00:39:31.882Z,71.29
2019-03-17T00:42:01.421Z,71.09
2019-03-17T00:44:30.947Z,71.13
2019-03-17T00:47:00.470Z,70.64
2019-03-17T00:49:29.983Z,70.41
2019-03-17T00:51:59.540Z,69.97
2019-03-17T00:54:29.101Z,69.89
2019-03-17T00:56:58.721Z,69.48
2019-03-17T00:59:28.265Z,69.19
2019-03-17T01:01:57.815Z,69.17
2019-03-17T01:04:27.347Z,68.63
2019-03-17T01:06:56.882Z,68.69
2019-03-17T01:09:26.412Z,68.48
2019-03-17T01:11:55.942Z,68.66
2019-03-17T01:14:25.476Z,68.62
2019-03-17T01:16:55.016Z,68.87
2019-03-17T01:19:24.536Z,67.80
2019-03-17T01:21:54.080Z,68.66
2019-03-17T01:24:23.684Z,67.96
2019-03-17T01:26:53.222Z,68.10
2019-03-17T01:29:22.740Z,67.92
2019-03-17T01:31:52.268Z,67.71
2019-03-17T01:34:21.783Z,67.74
2019-03-17T01:36:51.355Z,68.47
2019-03-17T01:39:20.847Z,68.26
2019-03-17T01:41:50.352Z,69.36
2019-03-17T01:44:19.944Z,68.82
2019-03-17T01:46:49.478Z,68.15
2019-03-17T01:49:19.017Z,67.48
2019-03-17T01:51:48.519Z,67.89
2019-03-17T01:54:18.123Z,67.46
2019-03-17T01:56:47.649Z,67.59
2019-03-17T01:59:17.253Z,67.39
2019-03-17T02:01:46.803Z,66.82
2019-03-17T02:04:16.357Z,66.71
2019-03-17T02:06:45.888Z,67.07
2019-03-17T02:09:15.434Z,66.82
2019-03-17T02:11:44.946Z,66.68
2019-03-17T02:14:14.471Z,66.50
2019-03-17T02:16:44.001Z,66.62
2019-03-17T02:19:13.549Z,66.84
2019-03-17T02:21:43.073Z,66.95
2019-03-17T02:24:12.658Z,67.20
2019-03-17T02:26:42.183Z,67.17
2019-03-17T02:29:11.730Z,67.39
2019-03-17T02:31:41.249Z,67.34
2019-03-17T02:34:12.105Z,67.56
2019-03-17T02:36:41.893Z,67.97
2019-03-17T02:39:11.422Z,68.42
2019-03-17T02:41:40.958Z,68.54
2019-03-17T02:44:10.477Z,69.42
2019-03-17T02:46:40.006Z,69.87
2019-03-17T02:49:09.544Z,70.19
2019-03-17T02:51:39.082Z,70.21
2019-03-17T02:54:08.609Z,70.37
2019-03-17T02:56:38.184Z,70.46
2019-03-17T02:59:07.732Z,70.78
2019-03-17T03:01:37.260Z,71.45
2019-03-17T03:04:06.953Z,71.78
2019-03-17T03:06:36.473Z,71.91
2019-03-17T03:09:07.059Z,72.23
2019-03-17T03:11:36.733Z,72.93
2019-03-17T03:14:06.315Z,74.01
2019-03-17T03:16:35.815Z,75.04
2019-03-17T03:19:05.352Z,74.91
2019-03-17T03:21:34.884Z,75.19
2019-03-17T03:24:04.446Z,75.21
2019-03-17T03:26:33.957Z,75.29
2019-03-17T03:29:03.492Z,75.68
2019-03-17T03:31:33.048Z,76.11
2019-03-17T03:34:02.605Z,76.49
2019-03-17T03:36:32.121Z,76.78
2019-03-17T03:39:01.661Z,77.25
2019-03-17T03:41:31.221Z,77.27
2019-03-17T03:44:00.836Z,78.13
2019-03-17T03:46:30.378Z,78.52
2019-03-17T03:48:59.907Z,78.34
2019-03-17T03:51:29.444Z,77.97
2019-03-17T03:53:58.980Z,78.22
2019-03-17T03:56:28.522Z,76.80
2019-03-17T03:58:58.055Z,75.71
2019-03-17T04:01:27.635Z,74.74
2019-03-17T04:03:57.180Z,74.07
2019-03-17T04:06:27.307Z,73.24
2019-03-17T04:08:56.936Z,72.67
2019-03-17T04:11:26.486Z,72.68
2019-03-17T04:13:56.001Z,72.32
2019-03-17T04:16:25.535Z,71.47
2019-03-17T04:18:55.074Z,71.20
2019-03-17T04:21:24.602Z,72.04
2019-03-17T04:23:54.134Z,71.31
2019-03-17T04:26:23.683Z,70.92
2019-03-17T04:28:53.211Z,70.74
2019-03-17T04:31:22.748Z,70.04
2019-03-17T04:33:52.296Z,69.69
2019-03-17T04:36:21.833Z,70.34
2019-03-17T04:38:51.345Z,69.85
2019-03-17T04:41:20.876Z,69.87
2019-03-17T04:43:50.416Z,69.34
2019-03-17T04:46:19.950Z,69.57
2019-03-17T04:48:49.510Z,68.73
2019-03-17T04:51:19.070Z,67.92
2019-03-17T04:53:48.648Z,67.53
2019-03-17T04:56:18.175Z,67.04
2019-03-17T04:58:47.723Z,66.37
2019-03-17T05:01:17.249Z,66.27
2019-03-17T05:03:46.780Z,65.74
2019-03-17T05:06:16.329Z,64.69
2019-03-17T05:08:45.876Z,65.54
2019-03-17T05:11:15.401Z,64.34
2019-03-17T05:13:44.957Z,64.11
2019-03-17T05:16:14.490Z,64.01
2019-03-17T05:18:44.012Z,63.48
2019-03-17T05:21:13.521Z,63.18
2019-03-17T05:23:43.071Z,62.42
2019-03-17T05:26:12.587Z,61.76
2019-03-17T05:28:42.125Z,61.19
2019-03-17T05:31:11.669Z,60.58
2019-03-17T05:33:41.225Z,61.68
2019-03-17T05:36:10.748Z,60.87
2019-03-17T05:38:40.288Z,60.76
2019-03-17T05:41:09.808Z,60.22
2019-03-17T05:43:39.332Z,60.39
2019-03-17T05:46:08.859Z,59.51
2019-03-17T05:48:38.407Z,58.95
2019-03-17T05:51:07.926Z,58.75
2019-03-17T05:53:40.282Z,58.38
2019-03-17T05:56:08.700Z,58.10
2019-03-17T05:58:38.224Z,57.36
2019-03-17T06:01:07.755Z,57.32
2019-03-17T06:03:37.291Z,57.02
2019-03-17T06:06:06.802Z,56.81
2019-03-17T06:08:36.356Z,56.75
2019-03-17T06:11:05.885Z,56.56
2019-03-17T06:13:35.418Z,56.19
2019-03-17T06:16:05.002Z,56.13
2019-03-17T06:18:34.547Z,54.74
2019-03-17T06:21:04.109Z,54.08
2019-03-17T06:23:33.712Z,53.17
2019-03-17T06:26:03.195Z,52.42
2019-03-17T06:28:32.738Z,52.55
2019-03-17T06:31:02.271Z,51.83
2019-03-17T06:33:31.812Z,52.26
2019-03-17T06:36:01.360Z,51.76
2019-03-17T06:38:30.879Z,52.17
2019-03-17T06:41:00.411Z,51.06
2019-03-17T06:43:29.975Z,50.42
2019-03-17T06:45:59.536Z,48.73
2019-03-17T06:48:29.058Z,49.32
2019-03-17T06:50:58.596Z,44.28
2019-03-17T06:53:28.136Z,41.93
2019-03-17T06:55:57.668Z,40.05
2019-03-17T06:58:27.229Z,38.64
2019-03-17T07:00:56.754Z,40.57
2019-03-17T07:03:26.290Z,41.30
2019-03-17T07:05:55.837Z,42.06
2019-03-17T07:08:25.390Z,43.82
2019-03-17T07:10:54.908Z,45.80
2019-03-17T07:13:24.456Z,46.62
2019-03-17T07:15:54.003Z,46.88
2019-03-17T07:18:23.548Z,48.16
2019-03-17T07:20:53.152Z,47.06
2019-03-17T07:23:22.694Z,47.72
2019-03-17T07:25:52.253Z,47.53
2019-03-17T07:28:21.787Z,47.95
2019-03-17T07:30:51.322Z,48.41
2019-03-17T07:33:20.858Z,47.00
2019-03-17T07:35:50.391Z,47.64
2019-03-17T07:38:19.953Z,48.32
2019-03-17T07:40:49.475Z,48.18
2019-03-17T07:43:19.005Z,46.77
2019-03-17T07:45:48.545Z,46.44
2019-03-17T07:48:18.100Z,45.98
2019-03-17T07:50:47.605Z,45.56
2019-03-17T07:53:17.151Z,45.51
2019-03-17T07:55:46.701Z,46.21
2019-03-17T07:58:16.227Z,46.58
2019-03-17T08:00:45.757Z,46.03
2019-03-17T08:03:15.334Z,47.01
2019-03-17T08:05:44.860Z,45.70
2019-03-17T08:08:14.390Z,44.59
2019-03-17T08:10:43.947Z,45.29
2019-03-17T08:13:13.486Z,45.55
2019-03-17T08:15:43.038Z,45.41
2019-03-17T08:18:12.569Z,46.60
2019-03-17T08:20:42.105Z,46.21
2019-03-17T08:23:11.652Z,46.12
2019-03-17T08:25:41.228Z,43.51
2019-03-17T08:28:10.831Z,43.12
2019-03-17T08:30:52.159Z,43.48
2019-03-17T08:33:11.721Z,43.20
2019-03-17T08:35:41.473Z,44.43
2019-03-17T08:38:21.284Z,43.38
2019-03-17T08:40:42.403Z,42.31
2019-03-17T08:43:12.123Z,41.11
2019-03-17T08:45:41.658Z,40.92
2019-03-17T08:48:11.204Z,40.34
2019-03-17T08:50:40.930Z,41.06
2019-03-17T08:53:10.470Z,39.82
2019-03-17T08:55:40.042Z,39.83
2019-03-17T08:58:09.707Z,39.31
2019-03-17T09:00:39.264Z,39.24
2019-03-17T09:03:09.002Z,40.37
2019-03-17T09:05:38.802Z,39.23
2019-03-17T09:08:08.367Z,40.00
2019-03-17T09:10:37.993Z,38.77
2019-03-17T09:13:07.711Z,39.83
2019-03-17T09:15:37.456Z,39.66
2019-03-17T09:18:07.009Z,39.62
2019-03-17T09:20:36.661Z,38.47
2019-03-17T09:23:06.202Z,37.67
2019-03-17T09:25:35.838Z,37.77
2019-03-17T09:28:05.380Z,37.85
2019-03-17T09:30:34.962Z,37.10
2019-03-17T09:33:04.494Z,37.72
2019-03-17T09:35:34.013Z,36.93
2019-03-17T09:38:03.546Z,36.33
2019-03-17T09:40:33.102Z,36.22
2019-03-17T09:43:02.614Z,35.92
2019-03-17T09:45:32.185Z,35.84
2019-03-17T09:48:01.719Z,34.68
2019-03-17T09:50:31.236Z,34.13
2019-03-17T09:53:00.773Z,33.67
2019-03-17T09:55:30.287Z,33.42
2019-03-17T09:57:59.810Z,34.25
2019-03-17T10:00:29.333Z,33.02
2019-03-17T10:02:58.863Z,33.07
2019-03-17T10:05:28.359Z,34.09
2019-03-17T10:07:57.946Z,32.00
2019-03-17T10:10:27.504Z,32.52
2019-03-17T10:12:57.044Z,31.32
2019-03-17T10:15:26.583Z,32.51
2019-03-17T10:17:56.136Z,32.43
2019-03-17T10:20:25.681Z,32.13
2019-03-17T10:22:55.321Z,31.17
2019-03-17T10:25:24.991Z,31.53
2019-03-17T10:27:54.552Z,29.96
2019-03-17T10:30:24.097Z,30.73
2019-03-17T10:32:53.650Z,29.49
2019-03-17T10:35:23.180Z,29.37
2019-03-17T10:37:52.723Z,29.32
2019-03-17T10:40:22.278Z,29.87
2019-03-17T10:42:51.940Z,29.47
2019-03-17T10:45:21.480Z,29.67
2019-03-17T10:47:52.203Z,29.29
2019-03-17T10:50:22.382Z,30.04
2019-03-17T10:52:51.926Z,30.64
2019-03-17T10:55:21.445Z,28.50
2019-03-17T10:57:51.025Z,28.50
2019-03-17T11:00:20.550Z,28.02
2019-03-17T11:02:50.078Z,27.73
2019-03-17T11:05:19.606Z,28.37
2019-03-17T11:07:49.548Z,28.01
2019-03-17T11:10:19.075Z,26.22
2019-03-17T11:12:48.625Z,27.11
2019-03-17T11:15:18.167Z,26.26
2019-03-17T11:17:47.712Z,24.81
2019-03-17T11:20:17.279Z,25.93
2019-03-17T11:22:46.827Z,25.16
2019-03-17T11:25:16.385Z,24.56
2019-03-17T11:27:45.912Z,25.10
2019-03-17T11:30:15.575Z,25.10
2019-03-17T11:32:45.100Z,24.13
2019-03-17T11:35:14.643Z,23.04
2019-03-17T11:37:44.187Z,22.96
2019-03-17T11:40:14.219Z,23.99
2019-03-17T11:42:43.742Z,23.94
2019-03-17T11:45:13.861Z,23.55
2019-03-17T11:47:43.401Z,23.49
2019-03-17T11:50:13.283Z,23.13
2019-03-17T11:52:42.822Z,23.21
2019-03-17T11:55:14.835Z,22.12
2019-03-17T11:57:44.368Z,23.16
2019-03-17T12:00:14.698Z,22.81
2019-03-17T12:02:44.242Z,23.17
2019-03-17T12:05:13.811Z,23.39
2019-03-17T12:07:43.453Z,23.60
2019-03-17T12:10:13.994Z,23.94
2019-03-17T12:12:43.510Z,23.83
2019-03-17T12:15:14.723Z,23.40
2019-03-17T12:17:44.276Z,22.33
2019-03-17T12:20:13.898Z,23.10
2019-03-17T12:22:43.429Z,22.62
2019-03-17T12:25:13.326Z,22.68
2019-03-17T12:27:42.867Z,23.25
2019-03-17T12:30:19.539Z,23.42
2019-03-17T12:32:49.363Z,24.44
2019-03-17T12:35:18.933Z,23.65
2019-03-17T12:37:48.480Z,22.93
2019-03-17T12:40:18.114Z,25.49
2019-03-17T12:42:47.694Z,25.49
2019-03-17T12:45:17.215Z,28.10
2019-03-17T12:47:46.737Z,28.64
2019-03-17T12:50:16.309Z,30.43
2019-03-17T12:52:45.827Z,31.50
2019-03-17T12:55:15.362Z,32.71
2019-03-17T12:57:44.991Z,33.13
2019-03-17T13:00:15.640Z,33.56
2019-03-17T13:02:45.182Z,33.67
2019-03-17T13:05:14.736Z,35.34
2019-03-17T13:07:44.287Z,35.71
2019-03-17T13:10:16.414Z,36.85
2019-03-17T13:12:46.425Z,36.62
2019-03-17T13:15:15.989Z,35.55
2019-03-17T13:17:45.522Z,35.69
2019-03-17T13:20:15.135Z,36.53
2019-03-17T13:22:44.703Z,36.70
2019-03-17T13:25:14.275Z,36.04
2019-03-17T13:27:43.800Z,36.49
2019-03-17T13:30:13.652Z,36.17
2019-03-17T13:32:43.194Z,37.46
2019-03-17T13:35:12.760Z,37.06
2019-03-17T13:37:42.321Z,37.31
2019-03-17T13:40:12.648Z,37.54
2019-03-17T13:42:42.180Z,37.39
2019-03-17T13:45:12.009Z,36.50
2019-03-17T13:47:41.554Z,36.59
2019-03-17T13:50:13.125Z,37.52
2019-03-17T13:52:42.668Z,37.33
2019-03-17T13:55:12.332Z,37.10
2019-03-17T13:57:42.665Z,37.07
2019-03-17T14:00:15.343Z,37.13
2019-03-17T14:02:45.001Z,38.16
2019-03-17T14:05:14.588Z,38.27
2019-03-17T14:07:44.469Z,37.67
2019-03-17T14:10:15.516Z,37.58
2019-03-17T14:12:45.082Z,37.05
2019-03-17T14:15:15.270Z,37.87
2019-03-17T14:17:44.830Z,37.31
2019-03-17T14:20:16.022Z,37.94
2019-03-17T14:22:45.528Z,38.37
2019-03-17T14:25:17.672Z,38.16
2019-03-17T14:27:47.209Z,38.20
2019-03-17T14:30:17.201Z,38.09
2019-03-17T14:32:46.750Z,38.46
2019-03-17T14:35:16.292Z,39.37
2019-03-17T14:37:45.810Z,38.70
2019-03-17T14:40:15.450Z,38.90
2019-03-17T14:42:45.339Z,38.47
2019-03-17T14:45:15.332Z,38.53
2019-03-17T14:47:44.880Z,38.96
2019-03-17T14:50:16.318Z,39.70
2019-03-17T14:52:45.846Z,39.09
2019-03-17T14:55:15.383Z,39.73
2019-03-17T14:57:44.937Z,39.69
2019-03-17T15:00:16.490Z,39.28
2019-03-17T15:02:46.254Z,40.00
2019-03-17T15:05:15.800Z,40.34
2019-03-17T15:07:45.412Z,40.09
2019-03-17T15:10:16.460Z,40.15
2019-03-17T15:12:46.035Z,40.16
2019-03-17T15:15:16.280Z,40.16
2019-03-17T15:17:45.812Z,40.36
2019-03-17T15:20:16.920Z,40.41
2019-03-17T15:22:46.483Z,40.65
2019-03-17T15:25:16.059Z,41.38
2019-03-17T15:27:45.576Z,41.81
2019-03-17T15:30:20.152Z,41.02
2019-03-17T15:32:49.746Z,41.47
2019-03-17T15:35:19.312Z,42.87
2019-03-17T15:37:48.863Z,42.82
2019-03-17T15:40:18.445Z,42.78
2019-03-17T15:42:47.962Z,43.70
2019-03-17T15:45:17.534Z,43.81
2019-03-17T15:47:47.144Z,44.32
2019-03-17T15:50:17.545Z,44.17
2019-03-17T15:52:47.091Z,44.18
2019-03-17T15:55:16.632Z,44.58
2019-03-17T15:57:46.168Z,44.56
2019-03-17T16:00:24.738Z,44.87
2019-03-17T16:02:48.936Z,45.14
2019-03-17T16:05:18.493Z,45.40
2019-03-17T16:07:48.031Z,46.07
2019-03-17T16:10:18.583Z,46.32
2019-03-17T16:12:48.178Z,46.93
2019-03-17T16:15:17.825Z,47.34
2019-03-17T16:17:47.386Z,48.21
2019-03-17T16:20:18.068Z,48.63
2019-03-17T16:22:47.643Z,48.46
2019-03-17T16:25:17.804Z,48.99
2019-03-17T16:27:47.361Z,49.62
2019-03-17T16:30:21.196Z,51.04
2019-03-17T16:32:50.746Z,51.13
2019-03-17T16:35:20.281Z,51.60
2019-03-17T16:37:49.819Z,52.80
2019-03-17T16:40:20.851Z,53.28
2019-03-17T16:42:53.436Z,54.01
2019-03-17T16:45:21.682Z,55.24
2019-03-17T16:47:51.213Z,56.03
2019-03-17T16:50:20.758Z,56.74
2019-03-17T16:52:50.310Z,57.50
2019-03-17T16:55:19.847Z,57.73
2019-03-17T16:57:49.398Z,58.00
2019-03-17T17:00:19.762Z,58.06
2019-03-17T17:02:49.365Z,58.35
2019-03-17T17:05:18.943Z,59.14
2019-03-17T17:07:48.486Z,59.16
2019-03-17T17:10:18.633Z,59.83
2019-03-17T17:12:48.194Z,60.32
2019-03-17T17:15:19.737Z,61.05
2019-03-17T17:17:49.655Z,61.85
2019-03-17T17:20:21.450Z,62.10
2019-03-17T17:22:51.175Z,62.73
2019-03-17T17:25:20.727Z,63.17
2019-03-17T17:27:50.257Z,63.13
2019-03-17T17:30:19.842Z,63.69
2019-03-17T17:32:49.652Z,64.27
2019-03-17T17:35:19.227Z,64.38
2019-03-17T17:37:48.801Z,64.57
2019-03-17T17:40:18.517Z,64.01
2019-03-17T17:42:48.053Z,64.98
2019-03-17T17:45:17.729Z,65.14
2019-03-17T17:47:47.279Z,65.08
2019-03-17T17:50:17.418Z,64.63
2019-03-17T17:52:46.958Z,65.39
2019-03-17T17:55:16.497Z,65.17
2019-03-17T17:57:46.029Z,65.49
2019-03-17T18:00:18.730Z,66.05
2019-03-17T18:02:48.279Z,66.51
2019-03-17T18:05:17.831Z,65.91
2019-03-17T18:07:47.363Z,65.38
2019-03-17T18:10:16.964Z,65.52
2019-03-17T18:12:46.511Z,64.88
2019-03-17T18:15:17.527Z,65.07
2019-03-17T18:17:47.106Z,64.39
2019-03-17T18:20:16.686Z,64.85
2019-03-17T18:22:46.210Z,64.92
2019-03-17T18:25:15.771Z,64.69
2019-03-17T18:27:45.310Z,65.25
2019-03-17T18:30:15.972Z,65.67
2019-03-17T18:32:45.538Z,66.53
2019-03-17T18:35:15.146Z,66.65
2019-03-17T18:37:44.683Z,66.88
2019-03-17T18:40:14.785Z,66.89
2019-03-17T18:42:44.334Z,67.05
2019-03-17T18:45:15.807Z,67.80
2019-03-17T18:47:45.365Z,68.17
2019-03-17T18:50:20.171Z,69.42
2019-03-17T18:52:47.307Z,69.39
2019-03-17T18:55:16.980Z,69.77
2019-03-17T18:57:46.523Z,70.82
2019-03-17T19:00:17.083Z,70.26
2019-03-17T19:02:46.605Z,70.36
2019-03-17T19:05:19.300Z,70.77
2019-03-17T19:07:47.453Z,70.53
2019-03-17T19:10:16.984Z,70.51
2019-03-17T19:12:46.586Z,70.39
2019-03-17T19:15:16.248Z,70.08
2019-03-17T19:17:45.773Z,70.28
2019-03-17T19:20:15.763Z,70.08
2019-03-17T19:22:45.326Z,70.50
2019-03-17T19:25:15.485Z,71.08
2019-03-17T19:27:45.046Z,70.12
2019-03-17T19:30:15.973Z,69.92
2019-03-17T19:32:45.698Z,70.02
2019-03-17T19:35:15.277Z,70.44
2019-03-17T19:37:44.817Z,70.45
2019-03-17T19:40:15.046Z,71.15
2019-03-17T19:42:57.435Z,70.82
2019-03-17T19:45:15.868Z,71.03
2019-03-17T19:47:45.423Z,71.46
2019-03-17T19:50:15.122Z,71.67
2019-03-17T19:52:44.674Z,72.05
2019-03-17T19:55:14.209Z,72.21
2019-03-17T19:57:43.760Z,72.96
2019-03-17T20:00:14.670Z,72.98
2019-03-17T20:02:47.152Z,73.13
2019-03-17T20:05:15.584Z,73.52
2019-03-17T20:07:45.137Z,74.59
2019-03-17T20:10:17.312Z,74.85
2019-03-17T20:12:46.866Z,75.00
2019-03-17T20:15:16.443Z,75.17
2019-03-17T20:17:46.051Z,75.08
2019-03-17T20:20:15.611Z,76.57
2019-03-17T20:22:45.233Z,76.91
2019-03-17T20:25:14.814Z,77.09
2019-03-17T20:27:44.436Z,77.69
2019-03-17T20:30:14.065Z,78.00
2019-03-17T20:32:43.627Z,77.96
2019-03-17T20:35:13.168Z,77.69
2019-03-17T20:37:42.737Z,77.33
2019-03-17T20:40:12.507Z,77.17
2019-03-17T20:42:42.064Z,76.87
2019-03-17T20:45:11.634Z,76.93
2019-03-17T20:47:41.170Z,77.24
2019-03-17T20:50:11.551Z,77.56
2019-03-17T20:52:41.106Z,77.97
2019-03-17T20:55:10.715Z,78.24
2019-03-17T20:57:40.298Z,77.98
2019-03-17T21:00:12.018Z,78.09
2019-03-17T21:02:41.569Z,77.99
2019-03-17T21:05:11.211Z,77.39
2019-03-17T21:07:40.786Z,77.10
2019-03-17T21:10:11.161Z,76.94
2019-03-17T21:12:40.875Z,77.11
2019-03-17T21:15:11.811Z,76.95
2019-03-17T21:17:41.365Z,76.90
2019-03-17T21:20:13.043Z,77.13
2019-03-17T21:22:42.638Z,77.39
2019-03-17T21:25:12.354Z,77.93
2019-03-17T21:27:41.883Z,77.99
2019-03-17T21:30:14.532Z,78.53
2019-03-17T21:32:44.078Z,79.24
2019-03-17T21:35:13.625Z,79.79
2019-03-17T21:37:43.162Z,79.65
2019-03-17T21:40:12.732Z,79.61
2019-03-17T21:42:42.253Z,79.82
2019-03-17T21:45:11.820Z,79.86
2019-03-17T21:47:41.366Z,80.42
2019-03-17T21:50:12.957Z,81.29
2019-03-17T21:52:42.496Z,81.16
2019-03-17T21:55:12.071Z,81.95
2019-03-17T21:57:41.592Z,81.56
2019-03-17T22:00:13.333Z,82.23
2019-03-17T22:02:42.860Z,82.48
2019-03-17T22:05:13.222Z,82.90
2019-03-17T22:07:49.520Z,83.65
2019-03-17T22:10:14.171Z,84.04
2019-03-17T22:12:43.684Z,84.37
2019-03-17T22:15:13.250Z,83.93
2019-03-17T22:17:42.789Z,83.82
2019-03-17T22:20:12.495Z,83.93
2019-03-17T22:22:42.018Z,84.68
2019-03-17T22:25:11.565Z,84.11
2019-03-17T22:27:41.186Z,84.58
2019-03-17T22:30:12.112Z,85.20
2019-03-17T22:32:41.649Z,84.85
2019-03-17T22:35:11.223Z,85.23
2019-03-17T22:37:40.763Z,85.27
2019-03-17T22:40:11.774Z,87.07
2019-03-17T22:42:41.334Z,87.20
2019-03-17T22:45:11.017Z,87.87
2019-03-17T22:47:40.538Z,87.69
2019-03-17T22:50:10.617Z,87.48
2019-03-17T22:52:40.145Z,87.59
2019-03-17T22:55:09.918Z,87.01
2019-03-17T22:57:39.464Z,87.14
2019-03-17T23:00:11.761Z,87.65
2019-03-17T23:02:41.287Z,86.72
2019-03-17T23:05:10.810Z,86.63
2019-03-17T23:07:40.379Z,87.02
2019-03-17T23:10:10.499Z,87.08
2019-03-17T23:12:40.056Z,87.02
2019-03-17T23:15:09.764Z,87.17
2019-03-17T23:17:39.317Z,86.77
2019-03-17T23:20:09.578Z,86.78
2019-03-17T23:22:39.151Z,86.94
2019-03-17T23:25:09.000Z,87.16
2019-03-17T23:27:38.547Z,86.28
2019-03-17T23:30:08.831Z,86.19
2019-03-17T23:32:38.367Z,87.58
2019-03-17T23:35:08.239Z,87.19
2019-03-17T23:37:37.812Z,87.86
2019-03-17T23:40:09.657Z,88.02
2019-03-17T23:42:38.700Z,88.51
2019-03-17T23:45:08.452Z,88.16
2019-03-17T23:47:38.030Z,86.94
2019-03-17T23:50:07.868Z,85.48
2019-03-17T23:52:37.423Z,85.08
2019-03-17T23:55:07.362Z,84.79
2019-03-17T23:57:36.904Z,84.12
